KBTL/BTL METAR and TAF weather

Enter ICAO airport designator
Station Type Date Time Source
KBTL METAR 2018/01/22 19:53 UTC NOAA

KBTL 221953Z 18014KT 10SM OVC017 12/09 A2955 RMK AO2 SLP011 T01170089


Station Type Date Time Source
KBTL Decoded METAR 2018/01/22 19:53 UTC NOAA

W.K.KELLOGG REGIONAL AIRPORT, MI, United States (KBTL) 42-18N 085-15W 290M
Jan 22, 2018 - 02:53 PM EST / 2018.01.22 1953 UTC
Wind: from the S (180 degrees) at 16 MPH (14 KT):0
Visibility: 10 mile(s):0
Sky conditions: overcast
Temperature: 53.1 F (11.7 C)
Dew Point: 48.0 F (8.9 C)
Relative Humidity: 82%
Pressure (altimeter): 29.55 in. Hg (1000 hPa)
ob: KBTL 221953Z 18014KT 10SM OVC017 12/09 A2955 RMK AO2 SLP011 T01170089
cycle: 20

Station Type Date Time Source
KBTL TAF 2018/01/22 18:57 UTC NOAA

TAF KBTL 221754Z 2218/2318 18010KT P6SM OVC015
FM222200 17008KT P6SM VCSH OVC012
FM230200 16007KT P6SM VCSH OVC025
FM230700 21008KT 5SM -DZ BR OVC010
FM231200 25010KT 4SM -SN BR OVC008
FM231500 27012G22KT 3SM -SN BR OVC008


Example: see airport list